createdAt,value
2022-08-25T00:00:23.935Z,60.10
2022-08-25T00:01:24.061Z,57.20
2022-08-25T00:02:24.371Z,55.11
2022-08-25T00:03:24.455Z,51.08
2022-08-25T00:04:25.393Z,56.40
2022-08-25T00:05:24.857Z,52.37
2022-08-25T00:06:25.023Z,53.01
2022-08-25T00:07:25.166Z,59.78
2022-08-25T00:08:25.335Z,53.82
2022-08-25T00:09:25.502Z,54.62
2022-08-25T00:10:25.686Z,52.05
2022-08-25T00:11:25.901Z,52.69
2022-08-25T00:12:26.074Z,53.01
2022-08-25T00:13:26.245Z,51.88
2022-08-25T00:14:27.397Z,54.79
2022-08-25T00:15:27.412Z,54.62
2022-08-25T00:16:26.830Z,55.75
2022-08-25T00:17:27.901Z,67.84
2022-08-25T00:18:27.150Z,58.81
2022-08-25T00:19:27.345Z,52.85
2022-08-25T00:20:27.475Z,50.76
2022-08-25T00:21:27.605Z,51.88
2022-08-25T00:22:27.749Z,55.27
2022-08-25T00:23:28.401Z,52.21
2022-08-25T00:24:28.146Z,49.31
2022-08-25T00:25:28.311Z,50.60
2022-08-25T00:26:28.480Z,61.87
2022-08-25T00:27:28.624Z,59.62
2022-08-25T00:28:28.778Z,64.29
2022-08-25T00:29:28.938Z,55.75
2022-08-25T00:30:29.902Z,49.47
2022-08-25T00:31:38.404Z,48.34
2022-08-25T00:32:30.385Z,51.72
2022-08-25T00:33:30.406Z,70.42
2022-08-25T00:34:29.695Z,55.27
2022-08-25T00:35:29.875Z,66.23
2022-08-25T00:36:30.062Z,70.25
2022-08-25T00:37:30.206Z,66.39
2022-08-25T00:38:30.391Z,56.88
2022-08-25T00:39:30.547Z,71.70
2022-08-25T00:40:30.777Z,61.87
2022-08-25T00:41:30.892Z,53.01
2022-08-25T00:42:31.038Z,60.59
2022-08-25T00:43:31.907Z,54.30
2022-08-25T00:44:31.431Z,55.91
2022-08-25T00:45:32.412Z,71.22
2022-08-25T00:46:32.518Z,54.62
2022-08-25T00:47:32.910Z,70.25
2022-08-25T00:48:32.150Z,67.84
2022-08-25T00:49:32.302Z,56.56
2022-08-25T00:50:33.411Z,56.24
2022-08-25T00:51:32.592Z,70.74
2022-08-25T00:52:32.766Z,53.33
2022-08-25T00:53:32.892Z,54.14
2022-08-25T00:54:33.039Z,53.50
2022-08-25T00:55:33.192Z,72.67
2022-08-25T00:56:33.912Z,51.56
2022-08-25T00:57:34.952Z,58.65
2022-08-25T00:58:33.581Z,56.07
2022-08-25T00:59:33.725Z,52.53
2022-08-25T01:00:33.863Z,51.72
2022-08-25T01:01:34.064Z,67.84
2022-08-25T01:02:34.474Z,51.72
2022-08-25T01:03:35.863Z,53.17
2022-08-25T01:04:34.613Z,70.90
2022-08-25T01:05:34.766Z,54.30
2022-08-25T01:06:34.891Z,53.01
2022-08-25T01:07:35.915Z,54.79
2022-08-25T01:08:35.178Z,53.82
2022-08-25T01:09:35.915Z,57.36
2022-08-25T01:10:35.549Z,55.43
2022-08-25T01:11:35.663Z,58.49
2022-08-25T01:12:35.810Z,71.70
2022-08-25T01:13:35.952Z,71.38
2022-08-25T01:14:36.106Z,68.96
2022-08-25T01:15:36.456Z,53.50
2022-08-25T01:16:36.395Z,54.14
2022-08-25T01:17:36.526Z,50.43
2022-08-25T01:18:36.697Z,53.50
2022-08-25T01:19:36.837Z,54.30
2022-08-25T01:20:36.958Z,68.16
2022-08-25T01:21:37.097Z,57.52
2022-08-25T01:22:37.921Z,54.30
2022-08-25T01:23:37.435Z,70.74
2022-08-25T01:24:37.578Z,55.75
2022-08-25T01:25:37.736Z,79.28
2022-08-25T01:26:37.897Z,63.33
2022-08-25T01:27:38.921Z,54.95
2022-08-25T01:28:38.439Z,56.88
2022-08-25T01:29:38.473Z,71.54
2022-08-25T01:30:38.714Z,58.17
2022-08-25T01:31:38.980Z,55.43
2022-08-25T01:32:39.078Z,69.45
2022-08-25T01:33:39.923Z,72.19
2022-08-25T01:34:39.470Z,65.90
2022-08-25T01:35:39.638Z,57.04
2022-08-25T01:36:39.938Z,55.43
2022-08-25T01:37:39.965Z,56.07
2022-08-25T01:38:40.125Z,58.33
2022-08-25T01:39:40.263Z,70.90
2022-08-25T01:40:40.411Z,54.46
2022-08-25T01:41:40.582Z,58.01
2022-08-25T01:42:41.433Z,55.75
2022-08-25T01:43:40.902Z,56.24
2022-08-25T01:44:41.045Z,53.50
2022-08-25T01:45:41.932Z,73.15
2022-08-25T01:46:41.321Z,58.01
2022-08-25T01:47:41.465Z,69.61
2022-08-25T01:48:41.630Z,57.85
2022-08-25T01:49:41.812Z,70.09
2022-08-25T01:50:41.966Z,71.06
2022-08-25T01:51:43.130Z,57.36
2022-08-25T01:52:42.287Z,61.87
2022-08-25T01:53:42.474Z,61.39
2022-08-25T01:54:42.632Z,56.07
2022-08-25T01:55:42.824Z,57.20
2022-08-25T01:56:43.932Z,65.10
2022-08-25T01:57:43.216Z,70.25
2022-08-25T01:58:43.382Z,63.65
2022-08-25T01:59:43.542Z,58.49
2022-08-25T02:00:43.702Z,58.81
2022-08-25T02:01:43.914Z,63.33
2022-08-25T02:02:44.156Z,59.46
2022-08-25T02:03:44.933Z,73.15
2022-08-25T02:04:44.703Z,64.29
2022-08-25T02:05:45.435Z,71.06
2022-08-25T02:06:44.859Z,71.38
2022-08-25T02:07:45.052Z,66.87
2022-08-25T02:08:45.174Z,69.61
2022-08-25T02:09:45.938Z,76.38
2022-08-25T02:10:45.559Z,77.83
2022-08-25T02:11:45.743Z,68.96
2022-08-25T02:12:46.437Z,70.25
2022-08-25T02:13:46.452Z,80.08
2022-08-25T02:14:46.231Z,74.12
2022-08-25T02:15:46.390Z,72.51
2022-08-25T02:16:47.671Z,70.74
2022-08-25T02:17:46.723Z,73.64
2022-08-25T02:18:46.917Z,59.78
2022-08-25T02:19:47.070Z,72.99
2022-08-25T02:20:47.193Z,73.96
2022-08-25T02:21:47.359Z,71.38
2022-08-25T02:22:56.574Z,53.17
2022-08-25T02:23:48.772Z,71.70
2022-08-25T02:24:47.889Z,57.20
2022-08-25T02:25:48.013Z,60.91
2022-08-25T02:26:48.149Z,66.87
2022-08-25T02:27:48.324Z,69.29
2022-08-25T02:28:48.473Z,65.58
2022-08-25T02:29:49.449Z,59.30
2022-08-25T02:30:48.860Z,72.83
2022-08-25T02:31:49.010Z,68.80
2022-08-25T02:32:49.945Z,70.90
2022-08-25T02:33:49.458Z,68.32
2022-08-25T02:34:49.486Z,69.45
2022-08-25T02:35:49.645Z,64.13
2022-08-25T02:36:50.445Z,65.74
2022-08-25T02:37:49.931Z,73.32
2022-08-25T02:38:50.458Z,74.93
2022-08-25T02:39:50.274Z,73.15
2022-08-25T02:40:50.457Z,69.77
2022-08-25T02:41:50.598Z,73.48
2022-08-25T02:42:50.738Z,69.45
2022-08-25T02:43:50.910Z,75.25
2022-08-25T02:44:51.038Z,59.30
2022-08-25T02:45:51.253Z,70.58
2022-08-25T02:46:51.414Z,66.39
2022-08-25T02:47:52.451Z,67.84
2022-08-25T02:48:51.832Z,75.25
2022-08-25T02:49:52.956Z,74.77
2022-08-25T02:50:52.200Z,72.99
2022-08-25T02:51:52.353Z,75.57
2022-08-25T02:52:52.486Z,72.99
2022-08-25T02:53:53.455Z,71.54
2022-08-25T02:54:52.814Z,72.67
2022-08-25T02:55:52.980Z,75.09
2022-08-25T02:56:53.132Z,71.70
2022-08-25T02:57:53.959Z,72.99
2022-08-25T02:58:53.959Z,72.67
2022-08-25T02:59:53.603Z,70.90
2022-08-25T03:00:53.802Z,66.23
2022-08-25T03:01:53.980Z,76.05
2022-08-25T03:02:54.010Z,73.64
2022-08-25T03:03:54.504Z,73.32
2022-08-25T03:04:55.156Z,76.05
2022-08-25T03:05:54.511Z,74.77
2022-08-25T03:06:54.639Z,72.19
2022-08-25T03:07:54.782Z,74.28
2022-08-25T03:08:55.979Z,75.25
2022-08-25T03:09:55.219Z,78.79
2022-08-25T03:10:55.396Z,72.03
2022-08-25T03:11:55.564Z,76.86
2022-08-25T03:12:55.723Z,75.73
2022-08-25T03:13:55.846Z,72.99
2022-08-25T03:14:55.984Z,75.89
2022-08-25T03:15:56.502Z,71.38
2022-08-25T03:16:56.369Z,77.18
2022-08-25T03:17:56.452Z,74.60
2022-08-25T03:18:57.617Z,74.12
2022-08-25T03:19:57.464Z,74.44
2022-08-25T03:20:56.965Z,73.80
2022-08-25T03:21:57.145Z,75.57
2022-08-25T03:22:57.302Z,74.12
2022-08-25T03:23:57.480Z,75.41
2022-08-25T03:24:58.469Z,72.83
2022-08-25T03:25:57.854Z,77.18
2022-08-25T03:26:58.065Z,77.34
2022-08-25T03:27:58.206Z,76.22
2022-08-25T03:28:58.358Z,70.90
2022-08-25T03:29:59.467Z,73.64
2022-08-25T03:30:58.724Z,74.60
2022-08-25T03:31:58.896Z,75.25
2022-08-25T03:32:59.042Z,80.73
2022-08-25T03:33:59.174Z,75.57
2022-08-25T03:34:59.481Z,72.99
2022-08-25T03:35:59.500Z,75.73
2022-08-25T03:36:59.671Z,77.18
2022-08-25T03:37:59.872Z,76.38
2022-08-25T03:39:00.561Z,75.25
2022-08-25T03:40:00.544Z,75.73
2022-08-25T03:41:00.347Z,73.96
2022-08-25T03:42:00.980Z,77.99
2022-08-25T03:43:00.616Z,75.41
2022-08-25T03:44:00.768Z,75.89
2022-08-25T03:45:01.471Z,76.86
2022-08-25T03:46:01.148Z,75.89
2022-08-25T03:47:01.485Z,77.18
2022-08-25T03:48:02.498Z,76.70
2022-08-25T03:49:01.794Z,77.02
2022-08-25T03:50:01.967Z,74.60
2022-08-25T03:51:02.149Z,74.44
2022-08-25T03:52:02.302Z,75.25
2022-08-25T03:53:02.469Z,77.18
2022-08-25T03:54:02.620Z,80.41
2022-08-25T03:55:02.783Z,69.77
2022-08-25T03:56:02.920Z,76.22
2022-08-25T03:57:04.976Z,76.05
2022-08-25T03:58:03.221Z,79.44
2022-08-25T03:59:03.496Z,73.15
2022-08-25T04:00:04.482Z,73.32
2022-08-25T04:01:04.813Z,82.50
2022-08-25T04:02:04.033Z,75.73
2022-08-25T04:03:04.082Z,72.67
2022-08-25T04:04:04.244Z,76.70
2022-08-25T04:05:04.387Z,73.15
2022-08-25T04:06:04.599Z,77.67
2022-08-25T04:07:04.751Z,75.57
2022-08-25T04:08:05.647Z,75.73
2022-08-25T04:09:05.505Z,77.67
2022-08-25T04:10:05.289Z,78.15
2022-08-25T04:11:05.982Z,77.67
2022-08-25T04:12:05.630Z,78.31
2022-08-25T04:13:05.752Z,75.09
2022-08-25T04:14:06.928Z,74.77
2022-08-25T04:15:06.029Z,76.22
2022-08-25T04:16:06.247Z,72.67
2022-08-25T04:17:06.984Z,75.73
2022-08-25T04:18:07.627Z,79.28
2022-08-25T04:19:06.782Z,74.28
2022-08-25T04:20:06.946Z,75.89
2022-08-25T04:21:07.103Z,76.86
2022-08-25T04:22:07.333Z,78.31
2022-08-25T04:23:07.469Z,74.12
2022-08-25T04:24:07.645Z,73.80
2022-08-25T04:25:08.807Z,77.18
2022-08-25T04:26:08.992Z,76.05
2022-08-25T04:27:08.243Z,74.60
2022-08-25T04:28:08.989Z,74.77
2022-08-25T04:29:09.515Z,75.89
2022-08-25T04:30:08.743Z,74.60
2022-08-25T04:31:08.889Z,76.54
2022-08-25T04:32:09.112Z,75.57
2022-08-25T04:33:09.168Z,75.57
2022-08-25T04:34:29.604Z,75.57
2022-08-25T04:35:10.454Z,76.22
2022-08-25T04:36:12.244Z,76.22
2022-08-25T04:37:11.519Z,71.87
2022-08-25T04:38:10.007Z,73.48
2022-08-25T04:39:10.134Z,77.99
2022-08-25T04:40:10.337Z,76.22
2022-08-25T04:41:10.520Z,76.38
2022-08-25T04:42:10.643Z,76.05
2022-08-25T04:43:10.783Z,76.54
2022-08-25T04:44:10.893Z,75.73
2022-08-25T04:45:11.996Z,74.44
2022-08-25T04:46:11.343Z,76.05
2022-08-25T04:47:11.407Z,75.41
2022-08-25T04:48:11.558Z,82.82
2022-08-25T04:49:11.651Z,73.96
2022-08-25T04:50:11.769Z,74.77
2022-08-25T04:51:12.015Z,77.18
2022-08-25T04:52:14.461Z,72.99
2022-08-25T04:53:12.336Z,76.05
2022-08-25T04:54:12.438Z,76.05
2022-08-25T04:55:12.589Z,76.22
2022-08-25T04:56:12.719Z,81.21
2022-08-25T04:57:12.843Z,78.15
2022-08-25T04:58:14.716Z,75.73
2022-08-25T04:59:13.148Z,76.70
2022-08-25T05:00:14.518Z,77.99
2022-08-25T05:01:14.552Z,72.83
2022-08-25T05:02:13.814Z,79.44
2022-08-25T05:03:13.958Z,75.57
2022-08-25T05:04:14.634Z,74.60
2022-08-25T05:05:16.005Z,75.89
2022-08-25T05:06:16.219Z,75.41
2022-08-25T05:07:15.655Z,82.02
2022-08-25T05:08:14.876Z,76.86
2022-08-25T05:09:15.513Z,77.34
2022-08-25T05:10:15.157Z,74.28
2022-08-25T05:11:15.796Z,76.86
2022-08-25T05:12:15.545Z,74.60
2022-08-25T05:13:16.503Z,73.96
2022-08-25T05:14:16.505Z,80.41
2022-08-25T05:15:15.982Z,75.09
2022-08-25T05:16:16.145Z,78.15
2022-08-25T05:17:16.279Z,74.28
2022-08-25T05:18:17.030Z,76.70
2022-08-25T05:19:17.503Z,75.41
2022-08-25T05:20:17.513Z,75.09
2022-08-25T05:21:17.986Z,76.22
2022-08-25T05:22:17.521Z,74.60
2022-08-25T05:23:18.008Z,75.25
2022-08-25T05:24:17.625Z,76.22
2022-08-25T05:25:18.510Z,74.44
2022-08-25T05:26:20.430Z,76.70
2022-08-25T05:27:19.085Z,77.02
2022-08-25T05:28:18.204Z,76.22
2022-08-25T05:29:18.339Z,73.96
2022-08-25T05:30:18.464Z,78.63
2022-08-25T05:31:18.640Z,76.05
2022-08-25T05:32:18.802Z,75.25
2022-08-25T05:33:18.922Z,76.86
2022-08-25T05:34:20.016Z,75.41
2022-08-25T05:35:20.014Z,73.80
2022-08-25T05:36:19.508Z,75.25
2022-08-25T05:37:19.678Z,75.41
2022-08-25T05:38:19.835Z,75.25
2022-08-25T05:39:20.536Z,75.09
2022-08-25T05:40:20.250Z,75.09
2022-08-25T05:41:20.434Z,74.93
2022-08-25T05:42:20.596Z,76.54
2022-08-25T05:43:20.735Z,74.77
2022-08-25T05:44:21.919Z,74.93
2022-08-25T05:45:21.164Z,76.70
2022-08-25T05:46:22.021Z,73.96
2022-08-25T05:47:21.387Z,74.77
2022-08-25T05:48:22.520Z,77.99
2022-08-25T05:49:21.770Z,74.77
2022-08-25T05:50:21.916Z,73.80
2022-08-25T05:51:23.020Z,76.70
2022-08-25T05:52:22.249Z,76.38
2022-08-25T05:53:22.397Z,76.70
2022-08-25T05:54:23.532Z,74.44
2022-08-25T05:55:23.521Z,73.80
2022-08-25T05:56:23.523Z,74.93
2022-08-25T05:57:22.998Z,74.12
2022-08-25T05:58:23.537Z,73.80
2022-08-25T05:59:23.280Z,75.41
2022-08-25T06:00:23.565Z,76.54
2022-08-25T06:01:23.774Z,74.77
2022-08-25T06:02:24.520Z,74.60
2022-08-25T06:03:24.178Z,76.22
2022-08-25T06:04:25.026Z,73.64
2022-08-25T06:05:24.524Z,75.89
2022-08-25T06:06:25.530Z,77.83
2022-08-25T06:07:27.054Z,74.44
2022-08-25T06:08:24.977Z,79.12
2022-08-25T06:09:25.094Z,75.57
2022-08-25T06:10:25.227Z,75.25
2022-08-25T06:11:26.031Z,83.14
2022-08-25T06:12:25.564Z,77.34
2022-08-25T06:13:26.862Z,76.05
2022-08-25T06:14:26.526Z,76.05
2022-08-25T06:15:26.541Z,76.22
2022-08-25T06:16:26.391Z,75.41
2022-08-25T06:17:26.535Z,74.60
2022-08-25T06:18:26.692Z,74.12
2022-08-25T06:19:26.860Z,75.25
2022-08-25T06:20:27.000Z,75.25
2022-08-25T06:21:27.139Z,77.67
2022-08-25T06:22:28.034Z,82.18
2022-08-25T06:23:27.563Z,76.22
2022-08-25T06:24:27.738Z,72.99
2022-08-25T06:25:27.899Z,74.77
2022-08-25T06:26:28.028Z,76.54
2022-08-25T06:27:28.217Z,74.12
2022-08-25T06:28:28.323Z,72.35
2022-08-25T06:29:28.485Z,74.93
2022-08-25T06:30:29.625Z,76.38
2022-08-25T06:31:29.149Z,77.50
2022-08-25T06:32:28.979Z,74.12
2022-08-25T06:33:29.149Z,74.93
2022-08-25T06:34:29.308Z,73.80
2022-08-25T06:35:29.461Z,73.64
2022-08-25T06:36:30.047Z,74.12
2022-08-25T06:37:29.816Z,84.59
2022-08-25T06:38:30.535Z,74.28
2022-08-25T06:39:30.190Z,75.57
2022-08-25T06:40:30.436Z,76.05
2022-08-25T06:41:36.628Z,77.34
2022-08-25T06:42:31.629Z,72.83
2022-08-25T06:43:30.760Z,72.67
2022-08-25T06:44:30.908Z,76.38
2022-08-25T06:45:31.548Z,73.32
2022-08-25T06:47:04.647Z,75.57
2022-08-25T06:47:32.091Z,71.54
2022-08-25T06:48:32.093Z,76.05
2022-08-25T06:49:35.561Z,75.25
2022-08-25T06:50:33.595Z,75.09
2022-08-25T06:51:32.200Z,73.80
2022-08-25T06:52:32.356Z,74.44
2022-08-25T06:53:32.485Z,74.93
2022-08-25T06:54:32.715Z,73.15
2022-08-25T06:55:32.961Z,74.93
2022-08-25T06:56:34.113Z,74.44
2022-08-25T06:57:33.280Z,77.67
2022-08-25T06:58:33.425Z,77.67
2022-08-25T06:59:33.564Z,75.41
2022-08-25T07:00:34.625Z,76.86
2022-08-25T07:01:35.090Z,77.67
2022-08-25T07:02:35.433Z,74.60
2022-08-25T07:03:35.116Z,74.93
2022-08-25T07:04:34.361Z,73.32
2022-08-25T07:05:43.403Z,78.63
2022-08-25T07:06:36.670Z,79.12
2022-08-25T07:07:43.983Z,73.32
2022-08-25T07:08:35.992Z,75.41
2022-08-25T07:09:38.653Z,73.32
2022-08-25T07:10:36.273Z,72.51
2022-08-25T07:11:35.533Z,73.48
2022-08-25T07:12:35.749Z,75.25
2022-08-25T07:13:35.952Z,72.35
2022-08-25T07:14:36.144Z,72.19
2022-08-25T07:15:37.089Z,73.64
2022-08-25T07:16:37.142Z,75.57
2022-08-25T07:17:36.708Z,71.70
2022-08-25T07:18:37.582Z,74.93
2022-08-25T07:19:38.036Z,74.93
2022-08-25T07:20:37.607Z,77.99
2022-08-25T07:21:38.085Z,76.22
2022-08-25T07:22:37.627Z,71.22
2022-08-25T07:23:38.613Z,77.02
2022-08-25T07:24:38.004Z,76.70
2022-08-25T07:25:39.090Z,75.09
2022-08-25T07:26:39.127Z,73.48
2022-08-25T07:27:39.090Z,75.41
2022-08-25T07:28:39.493Z,74.12
2022-08-25T07:29:42.351Z,77.50
2022-08-25T07:30:39.024Z,71.38
2022-08-25T07:31:40.161Z,73.48
2022-08-25T07:32:41.920Z,73.15
2022-08-25T07:33:39.506Z,77.99
2022-08-25T07:34:39.649Z,77.50
2022-08-25T07:35:39.903Z,75.25
2022-08-25T07:36:40.598Z,73.96
2022-08-25T07:37:49.635Z,77.02
2022-08-25T07:38:42.459Z,73.64
2022-08-25T07:39:40.605Z,72.51
2022-08-25T07:40:42.649Z,74.93
2022-08-25T07:41:40.919Z,76.38
2022-08-25T07:42:41.037Z,74.28
2022-08-25T07:43:41.189Z,74.93
2022-08-25T07:44:42.095Z,72.83
2022-08-25T07:45:49.205Z,73.32
2022-08-25T07:46:43.649Z,73.15
2022-08-25T07:47:41.902Z,75.09
2022-08-25T07:48:42.620Z,74.60
2022-08-25T07:49:44.104Z,72.19
2022-08-25T07:50:42.330Z,73.64
2022-08-25T07:51:44.046Z,71.70
2022-08-25T07:52:43.691Z,75.25
2022-08-25T07:53:42.945Z,73.48
2022-08-25T07:54:44.100Z,75.09
2022-08-25T07:55:45.220Z,75.57
2022-08-25T07:56:43.371Z,73.15
2022-08-25T07:57:43.550Z,75.25
2022-08-25T07:58:43.699Z,82.18
2022-08-25T07:59:44.603Z,72.67
2022-08-25T08:00:44.105Z,73.64
2022-08-25T08:01:44.284Z,73.32
2022-08-25T08:02:44.457Z,73.15
2022-08-25T08:03:51.016Z,79.44
2022-08-25T08:04:46.805Z,73.15
2022-08-25T08:05:45.000Z,74.60
2022-08-25T08:06:46.109Z,71.54
2022-08-25T08:07:45.360Z,72.19
2022-08-25T08:08:46.118Z,75.09
2022-08-25T08:09:46.608Z,72.67
2022-08-25T08:11:04.104Z,72.67
2022-08-25T08:11:53.869Z,71.38
2022-08-25T08:12:47.275Z,72.35
2022-08-25T08:13:46.517Z,73.96
2022-08-25T08:14:47.664Z,76.86
2022-08-25T08:15:47.168Z,72.03
2022-08-25T08:16:47.613Z,73.48
2022-08-25T08:17:47.212Z,72.99
2022-08-25T08:19:23.043Z,72.03
2022-08-25T08:19:48.159Z,76.70
2022-08-25T08:20:48.161Z,74.12
2022-08-25T08:21:48.023Z,70.90
2022-08-25T08:22:48.187Z,74.93
2022-08-25T08:23:48.347Z,73.15
2022-08-25T08:24:54.507Z,73.32
2022-08-25T08:25:49.718Z,73.64
2022-08-25T08:26:58.701Z,71.87
2022-08-25T08:27:51.664Z,82.02
2022-08-25T08:28:51.974Z,73.15
2022-08-25T08:29:49.566Z,75.89
2022-08-25T08:30:53.600Z,72.03
2022-08-25T08:31:50.708Z,71.87
2022-08-25T08:33:09.273Z,73.15
2022-08-25T08:33:53.158Z,79.28
2022-08-25T08:34:51.456Z,75.89
2022-08-25T08:35:50.658Z,72.67
2022-08-25T08:36:51.665Z,71.38
2022-08-25T08:37:52.518Z,73.80
2022-08-25T08:38:51.167Z,76.05
2022-08-25T08:39:52.215Z,68.64
2022-08-25T08:40:51.675Z,75.25
2022-08-25T08:42:11.695Z,73.80
2022-08-25T08:42:53.824Z,73.64
2022-08-25T08:43:52.149Z,72.67
2022-08-25T08:44:53.177Z,76.22
2022-08-25T08:45:53.764Z,74.12
2022-08-25T08:46:52.723Z,74.12
2022-08-25T08:47:53.667Z,73.15
2022-08-25T08:48:52.919Z,76.05
2022-08-25T08:49:53.072Z,73.96
2022-08-25T08:50:53.223Z,75.41
2022-08-25T08:51:53.397Z,73.48
2022-08-25T08:52:53.517Z,75.73
2022-08-25T08:53:53.670Z,73.32
2022-08-25T08:54:53.840Z,107.48
2022-08-25T08:55:54.053Z,74.28
2022-08-25T08:56:55.169Z,73.48
2022-08-25T08:57:54.579Z,73.96
2022-08-25T08:58:54.599Z,72.03
2022-08-25T08:59:54.834Z,75.57
2022-08-25T09:00:55.003Z,71.87
2022-08-25T09:01:55.179Z,74.12
2022-08-25T09:02:55.379Z,75.41
2022-08-25T09:03:55.548Z,75.89
2022-08-25T09:04:55.704Z,73.64
2022-08-25T09:05:56.187Z,74.12
2022-08-25T09:06:56.667Z,74.77
2022-08-25T09:07:56.269Z,75.25
2022-08-25T09:08:56.410Z,74.60
2022-08-25T09:09:56.560Z,74.93
2022-08-25T09:10:56.818Z,75.57
2022-08-25T09:11:56.940Z,75.73
2022-08-25T09:12:57.199Z,73.64
2022-08-25T09:13:58.171Z,73.32
2022-08-25T09:14:57.549Z,74.60
2022-08-25T09:15:57.748Z,72.99
2022-08-25T09:16:57.813Z,72.99
2022-08-25T09:17:58.054Z,74.44
2022-08-25T09:18:58.206Z,74.60
2022-08-25T09:19:58.345Z,72.83
2022-08-25T09:20:58.686Z,73.80
2022-08-25T09:21:58.650Z,74.93
2022-08-25T09:22:59.684Z,75.41
2022-08-25T09:23:59.189Z,75.73
2022-08-25T09:24:59.682Z,73.96
2022-08-25T09:25:59.281Z,73.96
2022-08-25T09:26:59.507Z,76.70
2022-08-25T09:28:00.746Z,72.83
2022-08-25T09:28:59.859Z,73.96
2022-08-25T09:29:59.999Z,73.64
2022-08-25T09:31:00.217Z,74.12
2022-08-25T09:32:01.179Z,72.51
2022-08-25T09:33:00.511Z,71.22
2022-08-25T09:34:00.692Z,75.41
2022-08-25T09:35:00.855Z,76.22
2022-08-25T09:36:00.997Z,74.12
2022-08-25T09:37:02.220Z,73.64
2022-08-25T09:38:01.459Z,75.57
2022-08-25T09:39:01.697Z,73.15
2022-08-25T09:40:01.811Z,74.93
2022-08-25T09:41:01.875Z,72.03
2022-08-25T09:42:02.681Z,72.83
2022-08-25T09:43:02.763Z,72.67
2022-08-25T09:44:02.697Z,71.06
2022-08-25T09:45:03.184Z,71.87
2022-08-25T09:46:03.228Z,72.99
2022-08-25T09:47:03.684Z,73.80
2022-08-25T09:48:03.234Z,74.60
2022-08-25T09:49:04.297Z,72.83
2022-08-25T09:50:04.485Z,72.83
2022-08-25T09:51:04.190Z,77.34
2022-08-25T09:52:04.200Z,78.31
2022-08-25T09:53:04.067Z,73.64
2022-08-25T09:54:10.437Z,72.83
2022-08-25T09:55:05.539Z,71.38
2022-08-25T09:56:04.634Z,73.64
2022-08-25T09:57:04.876Z,73.80
2022-08-25T09:58:09.392Z,75.25
2022-08-25T09:59:05.183Z,75.73
2022-08-25T10:00:06.447Z,72.19
2022-08-25T10:01:05.746Z,71.54
2022-08-25T10:02:06.732Z,75.89
2022-08-25T10:03:06.530Z,74.12
2022-08-25T10:04:06.298Z,72.99
2022-08-25T10:05:07.421Z,72.19
2022-08-25T10:06:06.549Z,74.12
2022-08-25T10:07:08.628Z,72.35
2022-08-25T10:08:06.879Z,76.70
2022-08-25T10:09:07.711Z,72.99
2022-08-25T10:10:07.243Z,76.54
2022-08-25T10:11:08.652Z,74.93
2022-08-25T10:12:07.490Z,71.06
2022-08-25T10:13:08.990Z,71.38
2022-08-25T10:14:07.918Z,72.35
2022-08-25T10:15:08.071Z,74.77
2022-08-25T10:16:20.426Z,75.73
2022-08-25T10:17:09.382Z,74.28
2022-08-25T10:18:08.653Z,72.19
2022-08-25T10:19:08.810Z,72.99
2022-08-25T10:20:08.950Z,73.64
2022-08-25T10:21:42.511Z,74.12
2022-08-25T10:22:10.869Z,72.03
2022-08-25T10:23:09.363Z,76.05
2022-08-25T10:24:10.240Z,73.32
2022-08-25T10:25:10.246Z,72.35
2022-08-25T10:26:09.904Z,73.64
2022-08-25T10:27:10.045Z,75.25
2022-08-25T10:28:10.179Z,76.86
2022-08-25T10:29:11.248Z,77.67
2022-08-25T10:30:10.519Z,72.35
2022-08-25T10:31:10.708Z,74.93
2022-08-25T10:32:12.259Z,73.96
2022-08-25T10:33:12.023Z,74.77
2022-08-25T10:34:11.749Z,73.64
2022-08-25T10:35:12.032Z,72.19
2022-08-25T10:36:11.528Z,73.48
2022-08-25T10:37:12.241Z,72.51
2022-08-25T10:38:12.744Z,76.05
2022-08-25T10:39:34.335Z,72.67
2022-08-25T10:40:13.375Z,73.64
2022-08-25T10:41:13.240Z,72.83
2022-08-25T10:42:13.106Z,72.03
2022-08-25T10:43:12.841Z,73.15
2022-08-25T10:44:12.991Z,75.89
2022-08-25T10:45:16.699Z,75.89
2022-08-25T10:46:15.787Z,71.54
2022-08-25T10:47:13.574Z,73.48
2022-08-25T10:48:13.695Z,72.83
2022-08-25T10:49:14.747Z,72.83
2022-08-25T10:50:14.118Z,73.96
2022-08-25T10:51:19.619Z,73.80
2022-08-25T10:52:16.766Z,76.38
2022-08-25T10:53:15.246Z,78.31
2022-08-25T10:54:15.751Z,72.03
2022-08-25T10:55:14.929Z,74.60
2022-08-25T10:56:15.140Z,76.05
2022-08-25T10:57:15.764Z,72.03
2022-08-25T10:58:15.604Z,73.48
2022-08-25T10:59:16.259Z,71.70
2022-08-25T11:00:16.753Z,73.96
2022-08-25T11:01:16.831Z,75.73
2022-08-25T11:02:16.302Z,73.48
2022-08-25T11:03:16.552Z,72.83
2022-08-25T11:04:16.677Z,75.25
2022-08-25T11:05:16.846Z,70.58
2022-08-25T11:06:17.979Z,74.60
2022-08-25T11:07:17.265Z,74.12
2022-08-25T11:08:18.304Z,72.03
2022-08-25T11:09:17.423Z,74.60
2022-08-25T11:10:17.567Z,74.93
2022-08-25T11:11:17.798Z,72.67
2022-08-25T11:12:17.948Z,74.44
2022-08-25T11:13:18.111Z,69.77
2022-08-25T11:14:18.765Z,73.64
2022-08-25T11:15:18.768Z,69.77
2022-08-25T11:16:19.447Z,71.38
2022-08-25T11:17:18.846Z,70.42
2022-08-25T11:18:19.005Z,72.83
2022-08-25T11:19:19.164Z,74.93
2022-08-25T11:20:26.906Z,73.15
2022-08-25T11:21:20.524Z,74.77
2022-08-25T11:22:20.264Z,71.87
2022-08-25T11:23:19.783Z,75.41
2022-08-25T11:24:19.941Z,72.99
2022-08-25T11:25:20.108Z,78.47
2022-08-25T11:26:21.262Z,72.83
2022-08-25T11:27:21.641Z,70.58
2022-08-25T11:28:20.779Z,73.48
2022-08-25T11:29:21.765Z,71.22
2022-08-25T11:30:21.009Z,73.64
2022-08-25T11:31:21.186Z,74.77
2022-08-25T11:32:22.261Z,72.03
2022-08-25T11:33:21.654Z,75.41
2022-08-25T11:34:22.775Z,71.38
2022-08-25T11:35:22.054Z,79.28
2022-08-25T11:36:22.767Z,69.45
2022-08-25T11:37:23.779Z,75.73
2022-08-25T11:38:22.499Z,72.99
2022-08-25T11:39:22.656Z,80.24
2022-08-25T11:40:22.807Z,71.87
2022-08-25T11:41:22.996Z,74.12
2022-08-25T11:42:23.171Z,72.83
2022-08-25T11:43:24.501Z,79.28
2022-08-25T11:44:23.620Z,75.09
2022-08-25T11:45:23.793Z,75.89
2022-08-25T11:46:27.604Z,71.54
2022-08-25T11:47:24.768Z,71.70
2022-08-25T11:48:24.268Z,71.38
2022-08-25T11:49:24.790Z,72.19
2022-08-25T11:50:25.925Z,72.35
2022-08-25T11:51:26.301Z,79.12
2022-08-25T11:52:28.938Z,72.83
2022-08-25T11:53:28.930Z,72.83
2022-08-25T11:54:25.329Z,74.12
2022-08-25T11:55:26.274Z,72.67
2022-08-25T11:56:25.713Z,72.35
2022-08-25T11:57:26.844Z,74.12
2022-08-25T11:58:26.788Z,72.83
2022-08-25T11:59:26.300Z,73.48
2022-08-25T12:00:26.457Z,71.70
2022-08-25T12:01:27.280Z,73.64
2022-08-25T12:02:26.727Z,71.38
2022-08-25T12:03:26.881Z,72.19
2022-08-25T12:04:27.337Z,71.54
2022-08-25T12:05:27.233Z,73.15
2022-08-25T12:06:27.417Z,72.83
2022-08-25T12:07:27.575Z,74.60
2022-08-25T12:08:28.285Z,72.35
2022-08-25T12:09:27.963Z,73.32
2022-08-25T12:10:28.108Z,72.03
2022-08-25T12:11:28.368Z,76.54
2022-08-25T12:12:29.288Z,72.35
2022-08-25T12:13:29.285Z,74.93
2022-08-25T12:14:28.835Z,71.06
2022-08-25T12:15:28.967Z,73.32
2022-08-25T12:16:29.301Z,72.19
2022-08-25T12:17:29.335Z,68.48
2022-08-25T12:18:30.287Z,72.83
2022-08-25T12:19:29.683Z,73.15
2022-08-25T12:20:29.885Z,72.83
2022-08-25T12:21:30.784Z,76.22
2022-08-25T12:22:30.257Z,70.90
2022-08-25T12:23:30.430Z,73.64
2022-08-25T12:24:30.635Z,87.01
2022-08-25T12:25:31.287Z,72.99
2022-08-25T12:26:31.309Z,68.64
2022-08-25T12:27:33.553Z,78.15
2022-08-25T12:28:34.988Z,71.22
2022-08-25T12:29:31.499Z,73.96
2022-08-25T12:30:32.318Z,71.70
2022-08-25T12:31:32.721Z,71.22
2022-08-25T12:32:32.796Z,72.51
2022-08-25T12:33:32.811Z,71.54
2022-08-25T12:34:32.211Z,72.99
2022-08-25T12:35:32.371Z,72.99
2022-08-25T12:36:33.363Z,73.48
2022-08-25T12:37:32.758Z,71.54
2022-08-25T12:38:32.903Z,72.99
2022-08-25T12:39:33.305Z,72.19
2022-08-25T12:40:33.245Z,75.57
2022-08-25T12:41:34.296Z,71.22
2022-08-25T12:42:33.661Z,77.18
2022-08-25T12:43:37.510Z,72.83
2022-08-25T12:44:34.323Z,70.58
2022-08-25T12:45:34.262Z,71.87
2022-08-25T12:46:34.349Z,76.38
2022-08-25T12:47:34.511Z,71.38
2022-08-25T12:48:34.654Z,72.99
2022-08-25T12:49:34.853Z,73.32
2022-08-25T12:50:35.051Z,69.77
2022-08-25T12:51:35.233Z,74.44
2022-08-25T12:52:35.395Z,72.83
2022-08-25T12:53:35.549Z,73.64
2022-08-25T12:54:35.719Z,73.15